createdAt,value
2022-09-11T00:04:36.986Z,78.28
2022-09-11T00:09:39.547Z,78.37
2022-09-11T00:14:42.114Z,78.42
2022-09-11T00:19:44.662Z,77.78
2022-09-11T00:24:47.555Z,78.34
2022-09-11T00:29:50.451Z,77.42
2022-09-11T00:34:52.998Z,77.37
2022-09-11T00:39:55.728Z,78.06
2022-09-11T00:45:02.324Z,78.01
2022-09-11T00:50:14.244Z,78.08
2022-09-11T00:55:20.310Z,78.47
2022-09-11T01:00:23.198Z,78.08
2022-09-11T01:05:29.134Z,78.09
2022-09-11T01:11:06.048Z,78.23
2022-09-11T01:16:20.436Z,78.77
2022-09-11T01:21:34.539Z,78.46
2022-09-11T01:26:49.349Z,78.63
2022-09-11T01:32:03.929Z,78.19
2022-09-11T01:37:36.014Z,78.98
2022-09-11T01:42:43.403Z,78.18
2022-09-11T01:47:49.592Z,78.67
2022-09-11T01:52:58.326Z,79.04
2022-09-11T01:58:21.243Z,78.43
2022-09-11T02:03:45.349Z,78.75
2022-09-11T02:08:54.877Z,79.02
2022-09-11T02:14:07.289Z,78.63
2022-09-11T02:19:33.785Z,78.94
2022-09-11T02:24:36.396Z,78.64
2022-09-11T02:29:39.582Z,78.46
2022-09-11T02:34:45.701Z,78.06
2022-09-11T02:39:54.643Z,77.72
2022-09-11T02:44:57.167Z,78.17
2022-09-11T02:50:22.142Z,78.59
2022-09-11T02:55:50.077Z,77.85
2022-09-11T03:00:55.637Z,77.92
2022-09-11T03:05:58.459Z,78.16
2022-09-11T03:11:01.779Z,78.21
2022-09-11T03:16:07.921Z,78.25
2022-09-11T03:21:11.478Z,77.60
2022-09-11T03:26:14.333Z,77.82
2022-09-11T03:31:17.574Z,76.85
2022-09-11T03:36:21.168Z,76.20
2022-09-11T03:41:23.860Z,76.19
2022-09-11T03:46:26.504Z,76.14
2022-09-11T03:51:29.159Z,75.81
2022-09-11T03:56:32.611Z,75.22
2022-09-11T04:01:35.808Z,75.17
2022-09-11T04:06:38.521Z,74.77
2022-09-11T04:11:42.177Z,73.56
2022-09-11T04:16:54.020Z,73.12
2022-09-11T04:21:57.141Z,72.78
2022-09-11T04:27:03.409Z,71.64
2022-09-11T04:32:07.206Z,70.51
2022-09-11T04:37:11.904Z,69.17
2022-09-11T04:42:16.048Z,69.10
2022-09-11T04:47:21.111Z,68.22
2022-09-11T04:52:25.288Z,67.54
2022-09-11T04:57:31.288Z,66.63
2022-09-11T05:02:36.297Z,65.41
2022-09-11T05:07:40.173Z,64.29
2022-09-11T05:12:44.617Z,63.39
2022-09-11T05:17:48.511Z,62.12
2022-09-11T05:22:54.260Z,60.64
2022-09-11T05:27:57.182Z,59.80
2022-09-11T05:33:00.388Z,58.94
2022-09-11T05:38:03.302Z,57.96
2022-09-11T05:43:06.368Z,57.01
2022-09-11T05:48:09.802Z,55.86
2022-09-11T05:53:16.061Z,55.75
2022-09-11T05:58:19.915Z,54.98
2022-09-11T06:03:23.184Z,54.18
2022-09-11T06:08:25.848Z,54.09
2022-09-11T06:13:31.893Z,52.85
2022-09-11T06:18:36.877Z,53.31
2022-09-11T06:23:42.366Z,52.70
2022-09-11T06:28:48.046Z,52.16
2022-09-11T06:33:52.011Z,51.36
2022-09-11T06:38:56.942Z,50.54
2022-09-11T06:44:01.769Z,50.03
2022-09-11T06:49:06.936Z,49.53
2022-09-11T06:54:29.556Z,48.80
2022-09-11T06:59:33.621Z,47.76
2022-09-11T07:04:36.468Z,47.01
2022-09-11T07:09:39.254Z,46.05
2022-09-11T07:14:42.642Z,45.45
2022-09-11T07:19:50.997Z,45.07
2022-09-11T07:24:54.836Z,44.89
2022-09-11T07:29:58.259Z,44.79
2022-09-11T07:35:02.679Z,44.50
2022-09-11T07:40:06.030Z,44.65
2022-09-11T07:45:10.324Z,44.70
2022-09-11T07:50:13.793Z,44.67
2022-09-11T07:55:19.086Z,44.41
2022-09-11T08:00:22.387Z,43.64
2022-09-11T08:05:33.677Z,43.17
2022-09-11T08:10:41.027Z,42.68
2022-09-11T08:15:51.410Z,42.53
2022-09-11T08:21:04.642Z,42.71
2022-09-11T08:26:12.736Z,42.29
2022-09-11T08:31:20.685Z,41.85
2022-09-11T08:36:25.600Z,41.14
2022-09-11T08:41:53.573Z,40.10
2022-09-11T08:47:08.319Z,39.91
2022-09-11T08:52:15.617Z,39.86
2022-09-11T08:57:40.927Z,39.18
2022-09-11T09:03:03.248Z,37.45
2022-09-11T09:08:33.926Z,37.92
2022-09-11T09:14:23.096Z,36.83
2022-09-11T09:19:39.548Z,36.86
2022-09-11T09:24:48.748Z,36.89
2022-09-11T09:29:55.870Z,36.51
2022-09-11T09:35:03.050Z,36.51
2022-09-11T09:40:11.113Z,36.17
2022-09-11T09:45:57.112Z,35.94
2022-09-11T09:50:59.706Z,36.95
2022-09-11T09:56:05.382Z,37.36
2022-09-11T10:01:46.175Z,37.21
2022-09-11T10:06:59.582Z,37.48
2022-09-11T10:12:09.224Z,37.29
2022-09-11T10:17:24.499Z,37.07
2022-09-11T10:22:32.402Z,36.68
2022-09-11T10:27:45.279Z,36.70
2022-09-11T10:32:47.863Z,36.74
2022-09-11T10:38:03.202Z,36.82
2022-09-11T10:43:08.270Z,36.57
2022-09-11T10:48:23.602Z,36.63
2022-09-11T10:53:26.425Z,36.42
2022-09-11T10:58:34.393Z,36.49
2022-09-11T11:03:37.708Z,36.21
2022-09-11T11:09:11.178Z,36.36
2022-09-11T11:14:41.933Z,36.61
2022-09-11T11:20:13.902Z,36.48
2022-09-11T11:25:17.689Z,36.63
2022-09-11T11:30:24.132Z,36.74
2022-09-11T11:35:52.403Z,36.60
2022-09-11T11:41:03.475Z,36.17
2022-09-11T11:46:19.875Z,36.29
2022-09-11T11:51:28.140Z,36.22
2022-09-11T11:56:59.914Z,36.36
2022-09-11T12:02:11.768Z,36.30
2022-09-11T12:07:24.339Z,36.21
2022-09-11T12:12:31.515Z,36.25
2022-09-11T12:17:36.484Z,35.97
2022-09-11T12:22:41.866Z,35.95
2022-09-11T12:27:45.511Z,35.82
2022-09-11T12:32:51.845Z,35.81
2022-09-11T12:38:00.229Z,35.84
2022-09-11T12:43:29.565Z,35.57
2022-09-11T12:48:40.611Z,35.52
2022-09-11T12:53:48.089Z,35.39
2022-09-11T12:59:07.744Z,35.65
2022-09-11T13:04:10.211Z,35.69
2022-09-11T13:09:28.689Z,35.78
2022-09-11T13:14:31.167Z,36.43
2022-09-11T13:19:39.326Z,35.86
2022-09-11T13:24:41.913Z,36.33
2022-09-11T13:29:48.513Z,36.46
2022-09-11T13:34:58.833Z,36.67
2022-09-11T13:40:04.298Z,36.97
2022-09-11T13:45:08.068Z,37.17
2022-09-11T13:50:13.813Z,37.64
2022-09-11T13:55:20.567Z,37.71
2022-09-11T14:00:42.192Z,38.01
2022-09-11T14:06:11.980Z,38.23
2022-09-11T14:11:24.396Z,38.45
2022-09-11T14:16:32.147Z,39.02
2022-09-11T14:21:40.472Z,39.13
2022-09-11T14:26:43.066Z,39.59
2022-09-11T14:31:45.891Z,39.85
2022-09-11T14:37:11.962Z,40.07
2022-09-11T14:42:21.780Z,40.19
2022-09-11T14:47:29.702Z,40.73
2022-09-11T14:52:32.551Z,41.17
2022-09-11T14:57:35.390Z,41.32
2022-09-11T15:02:37.961Z,41.60
2022-09-11T15:07:40.545Z,41.86
2022-09-11T15:12:43.150Z,42.19
2022-09-11T15:17:47.477Z,42.61
2022-09-11T15:22:50.272Z,42.62
2022-09-11T15:27:53.371Z,43.16
2022-09-11T15:32:56.028Z,43.38
2022-09-11T15:37:59.501Z,43.87
2022-09-11T15:43:02.211Z,44.32
2022-09-11T15:48:04.743Z,44.72
2022-09-11T15:53:07.618Z,45.36
2022-09-11T15:58:10.174Z,45.97
2022-09-11T16:03:12.934Z,46.72
2022-09-11T16:08:16.016Z,46.87
2022-09-11T16:13:18.984Z,47.52
2022-09-11T16:18:21.542Z,47.66
2022-09-11T16:23:25.811Z,48.20
2022-09-11T16:28:28.473Z,48.97
2022-09-11T16:33:32.386Z,49.21
2022-09-11T16:38:37.598Z,49.77
2022-09-11T16:43:42.168Z,49.79
2022-09-11T16:48:45.342Z,50.54
2022-09-11T16:53:47.971Z,50.95
2022-09-11T16:58:51.061Z,51.41
2022-09-11T17:03:56.236Z,52.11
2022-09-11T17:09:01.514Z,52.63
2022-09-11T17:14:04.462Z,52.57
2022-09-11T17:19:07.794Z,53.03
2022-09-11T17:24:10.599Z,53.08
2022-09-11T17:29:13.998Z,53.56
2022-09-11T17:34:17.210Z,53.42
2022-09-11T17:39:19.788Z,53.12
2022-09-11T17:44:24.685Z,52.96
2022-09-11T17:49:27.230Z,53.05
2022-09-11T17:54:29.835Z,53.37
2022-09-11T17:59:32.950Z,53.58
2022-09-11T18:04:36.083Z,53.76
2022-09-11T18:09:38.607Z,54.48
2022-09-11T18:14:43.420Z,54.43
2022-09-11T18:19:46.365Z,55.03
2022-09-11T18:24:50.942Z,55.67
2022-09-11T18:29:54.646Z,56.11
2022-09-11T18:35:00.134Z,56.67
2022-09-11T18:40:03.278Z,56.92
2022-09-11T18:45:07.427Z,57.40
2022-09-11T18:50:10.277Z,57.91
2022-09-11T18:55:12.849Z,58.41
2022-09-11T19:00:17.922Z,59.13
2022-09-11T19:05:21.572Z,58.91
2022-09-11T19:10:24.745Z,59.39
2022-09-11T19:15:27.384Z,59.43
2022-09-11T19:20:30.171Z,59.86
2022-09-11T19:25:35.397Z,59.93
2022-09-11T19:30:41.272Z,59.95
2022-09-11T19:36:03.689Z,59.95
2022-09-11T19:41:12.863Z,60.27
2022-09-11T19:46:21.472Z,59.90
2022-09-11T19:51:27.655Z,60.21
2022-09-11T19:56:33.050Z,59.35
2022-09-11T20:01:36.184Z,58.96
2022-09-11T20:06:39.053Z,58.99
2022-09-11T20:11:42.086Z,58.90
2022-09-11T20:16:44.690Z,58.20
2022-09-11T20:21:47.231Z,57.57
2022-09-11T20:26:52.250Z,57.14
2022-09-11T20:31:56.010Z,56.71
2022-09-11T20:37:00.703Z,56.53
2022-09-11T20:42:04.352Z,56.61
2022-09-11T20:47:07.233Z,56.36
2022-09-11T20:52:11.335Z,55.82
2022-09-11T20:57:13.938Z,55.94
2022-09-11T21:02:17.735Z,56.26
2022-09-11T21:07:20.776Z,56.17
2022-09-11T21:12:23.504Z,56.31
2022-09-11T21:17:26.145Z,56.01
2022-09-11T21:22:28.732Z,56.28
2022-09-11T21:27:31.281Z,56.11
2022-09-11T21:32:33.867Z,56.35
2022-09-11T21:37:36.422Z,56.65
2022-09-11T21:42:39.366Z,56.60
2022-09-11T21:47:42.338Z,56.91
2022-09-11T21:52:44.858Z,56.75
2022-09-11T21:57:47.455Z,57.24
2022-09-11T22:02:49.993Z,57.02
2022-09-11T22:07:53.161Z,56.98
2022-09-11T22:12:55.906Z,56.71
2022-09-11T22:17:58.406Z,57.38
2022-09-11T22:23:00.990Z,57.52
2022-09-11T22:28:06.753Z,58.05
2022-09-11T22:33:10.233Z,58.16
2022-09-11T22:38:13.257Z,58.62
2022-09-11T22:43:16.822Z,59.47
2022-09-11T22:48:19.451Z,59.48
2022-09-11T22:53:22.063Z,60.13
2022-09-11T22:58:24.989Z,60.53
2022-09-11T23:03:27.556Z,61.01
2022-09-11T23:08:39.138Z,61.92
2022-09-11T23:13:43.653Z,63.31
2022-09-11T23:18:46.877Z,65.35
2022-09-11T23:23:54.253Z,66.75
2022-09-11T23:28:58.544Z,67.82
2022-09-11T23:34:03.438Z,69.37
2022-09-11T23:39:06.005Z,70.62
2022-09-11T23:44:09.962Z,72.01
2022-09-11T23:49:13.182Z,73.09
2022-09-11T23:54:16.139Z,73.96
2022-09-11T23:59:18.830Z,74.91
